sensor_id;sensor_type;location;lat;lon;timestamp;pressure;altitude;pressure_sealevel;temperature;humidity
6829;BME280;17930;48.592;8.868;2022-12-17T00:01:42;97029.09;;;-5.64;100.00
6829;BME280;17930;48.592;8.868;2022-12-17T00:04:27;97033.50;;;-5.58;100.00
6829;BME280;17930;48.592;8.868;2022-12-17T00:07:12;97032.09;;;-5.60;100.00
6829;BME280;17930;48.592;8.868;2022-12-17T00:09:56;97034.81;;;-5.62;100.00
6829;BME280;17930;48.592;8.868;2022-12-17T00:12:40;97041.53;;;-5.77;100.00
6829;BME280;17930;48.592;8.868;2022-12-17T00:15:24;97047.34;;;-5.99;100.00
6829;BME280;17930;48.592;8.868;2022-12-17T00:18:09;97047.66;;;-6.02;100.00
6829;BME280;17930;48.592;8.868;2022-12-17T00:20:56;97053.06;;;-6.20;100.00
6829;BME280;17930;48.592;8.868;2022-12-17T00:23:40;97059.91;;;-6.29;100.00
6829;BME280;17930;48.592;8.868;2022-12-17T00:26:24;97055.16;;;-6.32;100.00
6829;BME280;17930;48.592;8.868;2022-12-17T00:29:08;97060.56;;;-6.27;100.00
6829;BME280;17930;48.592;8.868;2022-12-17T00:31:53;97066.41;;;-6.26;100.00
6829;BME280;17930;48.592;8.868;2022-12-17T00:34:37;97066.56;;;-6.28;100.00
6829;BME280;17930;48.592;8.868;2022-12-17T00:37:23;97071.16;;;-6.23;100.00
6829;BME280;17930;48.592;8.868;2022-12-17T00:40:08;97078.75;;;-6.23;100.00
6829;BME280;17930;48.592;8.868;2022-12-17T00:43:00;97082.88;;;-6.30;100.00
6829;BME280;17930;48.592;8.868;2022-12-17T00:45:44;97088.28;;;-6.65;100.00
6829;BME280;17930;48.592;8.868;2022-12-17T00:48:29;97085.13;;;-6.75;100.00
6829;BME280;17930;48.592;8.868;2022-12-17T00:51:14;97084.47;;;-6.93;100.00
6829;BME280;17930;48.592;8.868;2022-12-17T00:53:59;97094.56;;;-7.09;100.00
6829;BME280;17930;48.592;8.868;2022-12-17T00:56:44;97089.50;;;-7.01;100.00
6829;BME280;17930;48.592;8.868;2022-12-17T00:59:28;97095.84;;;-7.05;100.00
6829;BME280;17930;48.592;8.868;2022-12-17T01:02:12;97099.31;;;-7.06;100.00
6829;BME280;17930;48.592;8.868;2022-12-17T01:04:56;97098.38;;;-7.05;100.00
6829;BME280;17930;48.592;8.868;2022-12-17T01:07:41;97103.38;;;-7.28;100.00
6829;BME280;17930;48.592;8.868;2022-12-17T01:10:27;97102.09;;;-7.32;100.00
6829;BME280;17930;48.592;8.868;2022-12-17T01:13:12;97106.19;;;-7.39;100.00
6829;BME280;17930;48.592;8.868;2022-12-17T01:16:01;97107.97;;;-7.65;100.00
6829;BME280;17930;48.592;8.868;2022-12-17T01:18:45;97107.84;;;-7.89;100.00
6829;BME280;17930;48.592;8.868;2022-12-17T01:21:29;97106.88;;;-7.96;100.00
6829;BME280;17930;48.592;8.868;2022-12-17T01:24:14;97106.03;;;-8.04;100.00
6829;BME280;17930;48.592;8.868;2022-12-17T01:27:00;97104.88;;;-8.10;100.00
6829;BME280;17930;48.592;8.868;2022-12-17T01:29:44;97107.84;;;-8.22;100.00
6829;BME280;17930;48.592;8.868;2022-12-17T01:32:28;97110.47;;;-8.31;100.00
6829;BME280;17930;48.592;8.868;2022-12-17T01:35:13;97117.38;;;-8.33;100.00
6829;BME280;17930;48.592;8.868;2022-12-17T01:37:57;97118.16;;;-8.15;100.00
6829;BME280;17930;48.592;8.868;2022-12-17T01:40:41;97118.38;;;-8.26;100.00
6829;BME280;17930;48.592;8.868;2022-12-17T01:43:39;97119.97;;;-8.25;100.00
6829;BME280;17930;48.592;8.868;2022-12-17T01:46:24;97132.94;;;-8.46;100.00
6829;BME280;17930;48.592;8.868;2022-12-17T01:49:09;97134.09;;;-8.40;100.00
6829;BME280;17930;48.592;8.868;2022-12-17T01:51:55;97132.28;;;-8.30;100.00
6829;BME280;17930;48.592;8.868;2022-12-17T01:54:39;97137.19;;;-8.46;100.00
6829;BME280;17930;48.592;8.868;2022-12-17T01:57:25;97139.28;;;-8.59;100.00
6829;BME280;17930;48.592;8.868;2022-12-17T02:00:13;97141.69;;;-8.40;100.00
6829;BME280;17930;48.592;8.868;2022-12-17T02:02:58;97150.25;;;-8.51;100.00
6829;BME280;17930;48.592;8.868;2022-12-17T02:05:49;97149.66;;;-8.45;100.00
6829;BME280;17930;48.592;8.868;2022-12-17T02:08:40;97151.97;;;-8.34;100.00
6829;BME280;17930;48.592;8.868;2022-12-17T02:11:33;97150.25;;;-8.51;100.00
6829;BME280;17930;48.592;8.868;2022-12-17T02:14:26;97161.94;;;-8.84;100.00
6829;BME280;17930;48.592;8.868;2022-12-17T02:17:17;97162.38;;;-8.89;100.00
6829;BME280;17930;48.592;8.868;2022-12-17T02:20:14;97163.03;;;-8.87;100.00
6829;BME280;17930;48.592;8.868;2022-12-17T02:23:08;97168.25;;;-8.71;100.00
6829;BME280;17930;48.592;8.868;2022-12-17T02:26:00;97167.50;;;-8.81;100.00
6829;BME280;17930;48.592;8.868;2022-12-17T02:28:48;97166.09;;;-8.93;100.00
6829;BME280;17930;48.592;8.868;2022-12-17T02:31:39;97167.63;;;-9.00;100.00
6829;BME280;17930;48.592;8.868;2022-12-17T02:34:23;97170.63;;;-9.13;100.00
6829;BME280;17930;48.592;8.868;2022-12-17T02:37:08;97178.56;;;-9.09;100.00
6829;BME280;17930;48.592;8.868;2022-12-17T02:39:52;97184.19;;;-9.14;100.00
6829;BME280;17930;48.592;8.868;2022-12-17T02:42:33;97180.19;;;-8.90;100.00
6829;BME280;17930;48.592;8.868;2022-12-17T02:45:19;97180.56;;;-8.85;100.00
6829;BME280;17930;48.592;8.868;2022-12-17T02:48:04;97189.81;;;-8.76;100.00
6829;BME280;17930;48.592;8.868;2022-12-17T02:50:51;97195.94;;;-8.79;100.00
6829;BME280;17930;48.592;8.868;2022-12-17T02:53:41;97192.56;;;-8.70;100.00
6829;BME280;17930;48.592;8.868;2022-12-17T02:56:30;97183.97;;;-8.77;100.00
6829;BME280;17930;48.592;8.868;2022-12-17T02:59:15;97191.66;;;-8.96;100.00
6829;BME280;17930;48.592;8.868;2022-12-17T03:02:00;97200.06;;;-9.05;100.00
6829;BME280;17930;48.592;8.868;2022-12-17T03:04:45;97208.53;;;-8.96;100.00
6829;BME280;17930;48.592;8.868;2022-12-17T03:07:29;97206.16;;;-8.98;100.00
6829;BME280;17930;48.592;8.868;2022-12-17T03:10:13;97209.41;;;-9.14;100.00
6829;BME280;17930;48.592;8.868;2022-12-17T03:12:57;97214.00;;;-9.27;100.00
6829;BME280;17930;48.592;8.868;2022-12-17T03:15:42;97215.84;;;-9.29;100.00
6829;BME280;17930;48.592;8.868;2022-12-17T03:18:27;97220.13;;;-9.30;100.00
6829;BME280;17930;48.592;8.868;2022-12-17T03:21:11;97223.81;;;-9.24;100.00
6829;BME280;17930;48.592;8.868;2022-12-17T03:23:55;97219.03;;;-9.27;100.00
6829;BME280;17930;48.592;8.868;2022-12-17T03:26:40;97221.44;;;-9.35;100.00
6829;BME280;17930;48.592;8.868;2022-12-17T03:29:24;97230.19;;;-9.20;100.00
6829;BME280;17930;48.592;8.868;2022-12-17T03:32:08;97229.78;;;-8.99;100.00
6829;BME280;17930;48.592;8.868;2022-12-17T03:34:54;97238.97;;;-8.71;100.00
6829;BME280;17930;48.592;8.868;2022-12-17T03:37:38;97231.25;;;-8.69;100.00
6829;BME280;17930;48.592;8.868;2022-12-17T03:40:22;97238.88;;;-8.62;100.00
6829;BME280;17930;48.592;8.868;2022-12-17T03:43:08;97234.16;;;-8.47;100.00
6829;BME280;17930;48.592;8.868;2022-12-17T03:45:52;97238.84;;;-8.17;100.00
6829;BME280;17930;48.592;8.868;2022-12-17T03:48:37;97232.88;;;-8.09;100.00
6829;BME280;17930;48.592;8.868;2022-12-17T03:51:23;97236.44;;;-8.02;100.00
6829;BME280;17930;48.592;8.868;2022-12-17T03:54:07;97234.91;;;-7.95;100.00
6829;BME280;17930;48.592;8.868;2022-12-17T03:56:52;97227.34;;;-7.87;100.00
6829;BME280;17930;48.592;8.868;2022-12-17T03:59:36;97233.41;;;-7.80;100.00
6829;BME280;17930;48.592;8.868;2022-12-17T04:02:20;97230.66;;;-7.69;100.00
6829;BME280;17930;48.592;8.868;2022-12-17T04:05:05;97234.50;;;-7.57;100.00
6829;BME280;17930;48.592;8.868;2022-12-17T04:07:51;97236.59;;;-7.27;100.00
6829;BME280;17930;48.592;8.868;2022-12-17T04:10:36;97242.94;;;-7.23;100.00
6829;BME280;17930;48.592;8.868;2022-12-17T04:13:22;97244.84;;;-7.25;100.00
6829;BME280;17930;48.592;8.868;2022-12-17T04:16:07;97252.28;;;-7.24;100.00
6829;BME280;17930;48.592;8.868;2022-12-17T04:18:51;97253.38;;;-7.26;100.00
6829;BME280;17930;48.592;8.868;2022-12-17T04:21:36;97258.19;;;-7.15;100.00
6829;BME280;17930;48.592;8.868;2022-12-17T04:24:21;97259.34;;;-7.10;100.00
6829;BME280;17930;48.592;8.868;2022-12-17T04:27:06;97262.09;;;-6.96;100.00
6829;BME280;17930;48.592;8.868;2022-12-17T04:29:50;97266.91;;;-6.77;100.00
6829;BME280;17930;48.592;8.868;2022-12-17T04:32:34;97263.81;;;-6.63;100.00
6829;BME280;17930;48.592;8.868;2022-12-17T04:35:18;97267.28;;;-6.64;100.00
6829;BME280;17930;48.592;8.868;2022-12-17T04:38:08;97264.72;;;-6.64;100.00
6829;BME280;17930;48.592;8.868;2022-12-17T04:40:54;97270.63;;;-6.56;100.00
6829;BME280;17930;48.592;8.868;2022-12-17T04:43:38;97275.22;;;-6.51;100.00
6829;BME280;17930;48.592;8.868;2022-12-17T04:46:22;97271.78;;;-6.42;100.00
6829;BME280;17930;48.592;8.868;2022-12-17T04:49:07;97266.44;;;-6.23;100.00
6829;BME280;17930;48.592;8.868;2022-12-17T04:51:56;97269.91;;;-6.24;100.00
6829;BME280;17930;48.592;8.868;2022-12-17T04:54:41;97273.72;;;-6.28;100.00
6829;BME280;17930;48.592;8.868;2022-12-17T04:57:26;97269.44;;;-6.28;100.00
6829;BME280;17930;48.592;8.868;2022-12-17T05:00:12;97272.47;;;-6.16;100.00
6829;BME280;17930;48.592;8.868;2022-12-17T05:03:03;97277.22;;;-6.29;100.00
6829;BME280;17930;48.592;8.868;2022-12-17T05:05:50;97276.41;;;-6.22;100.00
6829;BME280;17930;48.592;8.868;2022-12-17T05:08:34;97286.69;;;-6.39;100.00
6829;BME280;17930;48.592;8.868;2022-12-17T05:11:19;97288.94;;;-6.28;100.00
6829;BME280;17930;48.592;8.868;2022-12-17T05:14:05;97289.53;;;-6.34;100.00
6829;BME280;17930;48.592;8.868;2022-12-17T05:16:49;97288.34;;;-6.07;100.00
6829;BME280;17930;48.592;8.868;2022-12-17T05:19:33;97295.66;;;-6.11;100.00
6829;BME280;17930;48.592;8.868;2022-12-17T05:22:18;97302.59;;;-6.21;100.00
6829;BME280;17930;48.592;8.868;2022-12-17T05:25:02;97300.53;;;-6.18;100.00
6829;BME280;17930;48.592;8.868;2022-12-17T05:27:47;97308.38;;;-6.45;100.00
6829;BME280;17930;48.592;8.868;2022-12-17T05:30:32;97303.72;;;-6.57;100.00
6829;BME280;17930;48.592;8.868;2022-12-17T05:33:17;97308.50;;;-6.54;100.00
6829;BME280;17930;48.592;8.868;2022-12-17T05:36:01;97308.63;;;-6.63;100.00
6829;BME280;17930;48.592;8.868;2022-12-17T05:38:46;97316.41;;;-6.57;100.00
6829;BME280;17930;48.592;8.868;2022-12-17T05:41:30;97318.53;;;-6.45;100.00
6829;BME280;17930;48.592;8.868;2022-12-17T05:44:14;97326.28;;;-6.46;100.00
6829;BME280;17930;48.592;8.868;2022-12-17T05:47:00;97325.66;;;-6.40;100.00
6829;BME280;17930;48.592;8.868;2022-12-17T05:49:44;97331.09;;;-6.35;100.00
6829;BME280;17930;48.592;8.868;2022-12-17T05:52:29;97336.41;;;-6.46;100.00
6829;BME280;17930;48.592;8.868;2022-12-17T05:55:13;97330.25;;;-6.85;100.00
6829;BME280;17930;48.592;8.868;2022-12-17T05:58:02;97334.69;;;-6.79;100.00
6829;BME280;17930;48.592;8.868;2022-12-17T06:00:47;97335.69;;;-6.72;100.00
6829;BME280;17930;48.592;8.868;2022-12-17T06:03:32;97343.91;;;-6.70;100.00
6829;BME280;17930;48.592;8.868;2022-12-17T06:06:17;97356.44;;;-6.94;100.00
6829;BME280;17930;48.592;8.868;2022-12-17T06:09:01;97346.63;;;-6.97;100.00
6829;BME280;17930;48.592;8.868;2022-12-17T06:11:46;97356.06;;;-7.07;100.00
6829;BME280;17930;48.592;8.868;2022-12-17T06:14:30;97358.25;;;-7.11;100.00
6829;BME280;17930;48.592;8.868;2022-12-17T06:17:14;97366.78;;;-7.12;100.00
6829;BME280;17930;48.592;8.868;2022-12-17T06:20:00;97367.47;;;-7.03;100.00
6829;BME280;17930;48.592;8.868;2022-12-17T06:22:44;97364.03;;;-7.02;100.00
6829;BME280;17930;48.592;8.868;2022-12-17T06:25:28;97376.00;;;-7.04;100.00
6829;BME280;17930;48.592;8.868;2022-12-17T06:28:13;97366.88;;;-6.97;100.00
6829;BME280;17930;48.592;8.868;2022-12-17T06:30:57;97375.53;;;-7.07;100.00
6829;BME280;17930;48.592;8.868;2022-12-17T06:33:41;97376.91;;;-7.12;100.00
6829;BME280;17930;48.592;8.868;2022-12-17T06:36:27;97376.63;;;-7.10;100.00
6829;BME280;17930;48.592;8.868;2022-12-17T06:39:11;97377.91;;;-7.06;100.00
6829;BME280;17930;48.592;8.868;2022-12-17T06:41:55;97376.38;;;-6.99;100.00
6829;BME280;17930;48.592;8.868;2022-12-17T06:44:40;97377.91;;;-7.06;100.00
6829;BME280;17930;48.592;8.868;2022-12-17T06:47:25;97373.47;;;-6.86;100.00
6829;BME280;17930;48.592;8.868;2022-12-17T06:50:09;97373.25;;;-6.67;100.00
6829;BME280;17930;48.592;8.868;2022-12-17T06:52:59;97378.69;;;-6.80;100.00
6829;BME280;17930;48.592;8.868;2022-12-17T06:55:43;97379.06;;;-6.75;100.00
6829;BME280;17930;48.592;8.868;2022-12-17T06:58:27;97379.31;;;-6.86;100.00
6829;BME280;17930;48.592;8.868;2022-12-17T07:01:12;97383.16;;;-6.99;100.00
6829;BME280;17930;48.592;8.868;2022-12-17T07:03:56;97390.19;;;-6.93;100.00
6829;BME280;17930;48.592;8.868;2022-12-17T07:06:41;97393.56;;;-6.85;100.00
6829;BME280;17930;48.592;8.868;2022-12-17T07:09:26;97396.19;;;-6.94;100.00
6829;BME280;17930;48.592;8.868;2022-12-17T07:12:11;97402.31;;;-7.05;100.00
6829;BME280;17930;48.592;8.868;2022-12-17T07:14:55;97413.66;;;-7.09;100.00
6829;BME280;17930;48.592;8.868;2022-12-17T07:17:39;97421.72;;;-7.13;100.00
6829;BME280;17930;48.592;8.868;2022-12-17T07:20:24;97428.50;;;-7.13;100.00
6829;BME280;17930;48.592;8.868;2022-12-17T07:23:08;97433.13;;;-7.09;100.00
6829;BME280;17930;48.592;8.868;2022-12-17T07:25:55;97451.38;;;-7.23;100.00
6829;BME280;17930;48.592;8.868;2022-12-17T07:28:40;97452.88;;;-7.12;100.00
6829;BME280;17930;48.592;8.868;2022-12-17T07:31:24;97453.69;;;-7.29;100.00
6829;BME280;17930;48.592;8.868;2022-12-17T07:34:08;97457.69;;;-7.44;100.00
6829;BME280;17930;48.592;8.868;2022-12-17T07:36:52;97459.69;;;-7.30;100.00
6829;BME280;17930;48.592;8.868;2022-12-17T07:39:37;97462.59;;;-7.25;100.00
6829;BME280;17930;48.592;8.868;2022-12-17T07:42:22;97468.97;;;-7.21;100.00
6829;BME280;17930;48.592;8.868;2022-12-17T07:45:08;97466.56;;;-7.23;100.00
6829;BME280;17930;48.592;8.868;2022-12-17T07:47:52;97468.97;;;-7.21;100.00
6829;BME280;17930;48.592;8.868;2022-12-17T07:50:36;97473.16;;;-7.12;100.00
6829;BME280;17930;48.592;8.868;2022-12-17T07:53:20;97467.94;;;-7.11;100.00
6829;BME280;17930;48.592;8.868;2022-12-17T07:56:05;97468.72;;;-6.93;100.00
6829;BME280;17930;48.592;8.868;2022-12-17T07:58:51;97483.06;;;-7.02;100.00
6829;BME280;17930;48.592;8.868;2022-12-17T08:01:35;97477.75;;;-6.91;100.00
6829;BME280;17930;48.592;8.868;2022-12-17T08:04:19;97481.53;;;-6.95;100.00
6829;BME280;17930;48.592;8.868;2022-12-17T08:07:04;97483.38;;;-6.79;100.00
6829;BME280;17930;48.592;8.868;2022-12-17T08:09:48;97487.09;;;-6.91;100.00
6829;BME280;17930;48.592;8.868;2022-12-17T08:12:32;97495.06;;;-6.86;100.00
6829;BME280;17930;48.592;8.868;2022-12-17T08:15:18;97500.94;;;-6.86;100.00
6829;BME280;17930;48.592;8.868;2022-12-17T08:18:03;97509.75;;;-6.90;100.00
6829;BME280;17930;48.592;8.868;2022-12-17T08:20:47;97512.88;;;-6.96;100.00
6829;BME280;17930;48.592;8.868;2022-12-17T08:23:31;97513.44;;;-6.84;100.00
6829;BME280;17930;48.592;8.868;2022-12-17T08:26:16;97517.25;;;-6.63;100.00
6829;BME280;17930;48.592;8.868;2022-12-17T08:29:00;97519.03;;;-6.38;100.00
6829;BME280;17930;48.592;8.868;2022-12-17T08:31:46;97518.22;;;-6.13;100.00
6829;BME280;17930;48.592;8.868;2022-12-17T08:34:30;97531.56;;;-6.37;100.00
6829;BME280;17930;48.592;8.868;2022-12-17T08:37:14;97532.94;;;-6.42;100.00
6829;BME280;17930;48.592;8.868;2022-12-17T08:39:59;97530.50;;;-6.26;100.00
6829;BME280;17930;48.592;8.868;2022-12-17T08:42:43;97543.78;;;-6.32;100.00
6829;BME280;17930;48.592;8.868;2022-12-17T08:45:27;97534.63;;;-6.00;100.00
6829;BME280;17930;48.592;8.868;2022-12-17T08:48:13;97530.84;;;-5.96;100.00
6829;BME280;17930;48.592;8.868;2022-12-17T08:50:57;97536.75;;;-5.88;100.00
6829;BME280;17930;48.592;8.868;2022-12-17T08:53:41;97540.13;;;-6.05;100.00
6829;BME280;17930;48.592;8.868;2022-12-17T08:56:26;97547.19;;;-5.91;100.00
6829;BME280;17930;48.592;8.868;2022-12-17T08:59:18;97546.31;;;-5.82;100.00
6829;BME280;17930;48.592;8.868;2022-12-17T09:02:03;97548.41;;;-5.77;100.00
6829;BME280;17930;48.592;8.868;2022-12-17T09:04:48;97556.50;;;-5.66;100.00
6829;BME280;17930;48.592;8.868;2022-12-17T09:07:33;97565.38;;;-5.70;100.00
6829;BME280;17930;48.592;8.868;2022-12-17T09:10:17;97563.94;;;-5.80;100.00
6829;BME280;17930;48.592;8.868;2022-12-17T09:13:01;97565.75;;;-5.57;100.00
6829;BME280;17930;48.592;8.868;2022-12-17T09:15:52;97565.38;;;-5.29;100.00
6829;BME280;17930;48.592;8.868;2022-12-17T09:18:37;97568.03;;;-5.46;100.00
6829;BME280;17930;48.592;8.868;2022-12-17T09:21:23;97566.97;;;-5.69;100.00
6829;BME280;17930;48.592;8.868;2022-12-17T09:24:08;97558.84;;;-5.39;100.00
6829;BME280;17930;48.592;8.868;2022-12-17T09:26:52;97557.16;;;-5.15;100.00
6829;BME280;17930;48.592;8.868;2022-12-17T09:29:37;97551.72;;;-5.28;100.00
6829;BME280;17930;48.592;8.868;2022-12-17T09:32:32;97551.00;;;-4.97;100.00
6829;BME280;17930;48.592;8.868;2022-12-17T09:35:17;97548.47;;;-4.97;100.00
6829;BME280;17930;48.592;8.868;2022-12-17T09:38:02;97555.34;;;-5.38;100.00
6829;BME280;17930;48.592;8.868;2022-12-17T09:40:48;97564.28;;;-5.26;100.00
6829;BME280;17930;48.592;8.868;2022-12-17T09:43:39;97554.66;;;-4.83;100.00
6829;BME280;17930;48.592;8.868;2022-12-17T09:46:32;97556.28;;;-4.58;100.00
6829;BME280;17930;48.592;8.868;2022-12-17T09:49:23;97555.97;;;-4.56;100.00
6829;BME280;17930;48.592;8.868;2022-12-17T09:52:19;97557.72;;;-4.32;100.00
6829;BME280;17930;48.592;8.868;2022-12-17T09:55:14;97555.97;;;-4.24;100.00
6829;BME280;17930;48.592;8.868;2022-12-17T09:58:00;97561.84;;;-4.87;100.00
6829;BME280;17930;48.592;8.868;2022-12-17T10:00:44;97554.84;;;-4.69;100.00
6829;BME280;17930;48.592;8.868;2022-12-17T10:03:29;97554.88;;;-4.29;100.00
6829;BME280;17930;48.592;8.868;2022-12-17T10:06:18;97553.25;;;-4.38;100.00
6829;BME280;17930;48.592;8.868;2022-12-17T10:09:09;97559.00;;;-4.44;100.00
6829;BME280;17930;48.592;8.868;2022-12-17T10:11:58;97556.44;;;-4.28;100.00
6829;BME280;17930;48.592;8.868;2022-12-17T10:14:45;97559.47;;;-4.41;100.00
6829;BME280;17930;48.592;8.868;2022-12-17T10:17:30;97562.50;;;-4.13;100.00
6829;BME280;17930;48.592;8.868;2022-12-17T10:20:21;97572.38;;;-4.26;100.00
6829;BME280;17930;48.592;8.868;2022-12-17T10:23:07;97566.91;;;-3.92;100.00
6829;BME280;17930;48.592;8.868;2022-12-17T10:25:53;97564.31;;;-3.76;100.00
6829;BME280;17930;48.592;8.868;2022-12-17T10:28:39;97576.31;;;-4.08;100.00
6829;BME280;17930;48.592;8.868;2022-12-17T10:31:27;97576.34;;;-4.32;100.00
6829;BME280;17930;48.592;8.868;2022-12-17T10:34:23;97575.53;;;-4.24;100.00
6829;BME280;17930;48.592;8.868;2022-12-17T10:37:17;97566.97;;;-4.39;100.00
6829;BME280;17930;48.592;8.868;2022-12-17T10:40:10;97568.22;;;-4.59;100.00
6829;BME280;17930;48.592;8.868;2022-12-17T10:42:59;97571.00;;;-5.02;100.00
6829;BME280;17930;48.592;8.868;2022-12-17T10:45:51;97566.28;;;-4.81;100.00
6829;BME280;17930;48.592;8.868;2022-12-17T10:48:36;97566.31;;;-4.33;100.00
6829;BME280;17930;48.592;8.868;2022-12-17T10:51:25;97565.69;;;-4.43;100.00
6829;BME280;17930;48.592;8.868;2022-12-17T10:54:19;97571.88;;;-4.46;100.00
6829;BME280;17930;48.592;8.868;2022-12-17T10:57:06;97569.97;;;-4.52;100.00
6829;BME280;17930;48.592;8.868;2022-12-17T10:59:51;97571.06;;;-4.78;100.00
6829;BME280;17930;48.592;8.868;2022-12-17T11:02:37;97571.69;;;-4.52;100.00
6829;BME280;17930;48.592;8.868;2022-12-17T11:05:25;97575.03;;;-4.59;100.00
6829;BME280;17930;48.592;8.868;2022-12-17T11:08:11;97566.75;;;-3.98;100.00
6829;BME280;17930;48.592;8.868;2022-12-17T11:10:57;97573.91;;;-3.94;100.00
6829;BME280;17930;48.592;8.868;2022-12-17T11:13:44;97564.25;;;-3.52;100.00
6829;BME280;17930;48.592;8.868;2022-12-17T11:16:32;97571.88;;;-3.52;100.00
6829;BME280;17930;48.592;8.868;2022-12-17T11:19:30;97571.66;;;-3.81;100.00
6829;BME280;17930;48.592;8.868;2022-12-17T11:22:26;97573.47;;;-3.13;100.00
6829;BME280;17930;48.592;8.868;2022-12-17T11:25:28;97568.16;;;-2.51;100.00
6829;BME280;17930;48.592;8.868;2022-12-17T11:28:17;97566.00;;;-2.62;100.00
6829;BME280;17930;48.592;8.868;2022-12-17T11:31:43;97564.63;;;-2.50;100.00
6829;BME280;17930;48.592;8.868;2022-12-17T11:34:44;97572.31;;;-3.03;100.00
6829;BME280;17930;48.592;8.868;2022-12-17T11:37:51;97571.44;;;-2.65;100.00
6829;BME280;17930;48.592;8.868;2022-12-17T11:40:40;97576.38;;;-3.16;100.00
6829;BME280;17930;48.592;8.868;2022-12-17T11:43:43;97585.16;;;-3.26;100.00
6829;BME280;17930;48.592;8.868;2022-12-17T11:46:38;97575.44;;;-2.62;100.00
6829;BME280;17930;48.592;8.868;2022-12-17T11:49:36;97574.69;;;-2.71;100.00
6829;BME280;17930;48.592;8.868;2022-12-17T11:52:29;97581.91;;;-3.12;100.00
6829;BME280;17930;48.592;8.868;2022-12-17T11:55:35;97581.72;;;-3.03;100.00
6829;BME280;17930;48.592;8.868;2022-12-17T11:58:29;97575.03;;;-3.42;100.00
6829;BME280;17930;48.592;8.868;2022-12-17T12:01:19;97572.81;;;-3.45;100.00
6829;BME280;17930;48.592;8.868;2022-12-17T12:04:16;97581.53;;;-3.86;100.00
6829;BME280;17930;48.592;8.868;2022-12-17T12:07:14;97566.09;;;-3.30;100.00
6829;BME280;17930;48.592;8.868;2022-12-17T12:10:06;97571.28;;;-3.16;100.00
6829;BME280;17930;48.592;8.868;2022-12-17T12:13:03;97565.34;;;-3.16;100.00
6829;BME280;17930;48.592;8.868;2022-12-17T12:16:00;97565.09;;;-3.29;100.00
6829;BME280;17930;48.592;8.868;2022-12-17T12:18:54;97569.28;;;-3.36;100.00
6829;BME280;17930;48.592;8.868;2022-12-17T12:21:49;97569.13;;;-3.35;100.00
6829;BME280;17930;48.592;8.868;2022-12-17T12:27:53;97574.47;;;-3.68;100.00
6829;BME280;17930;48.592;8.868;2022-12-17T12:30:45;97564.56;;;-3.55;100.00
6829;BME280;17930;48.592;8.868;2022-12-17T12:33:46;97564.75;;;-3.26;100.00
6829;BME280;17930;48.592;8.868;2022-12-17T12:36:33;97574.53;;;-3.92;100.00
6829;BME280;17930;48.592;8.868;2022-12-17T12:39:24;97575.88;;;-3.58;100.00
6829;BME280;17930;48.592;8.868;2022-12-17T12:42:30;97588.00;;;-3.59;100.00
6829;BME280;17930;48.592;8.868;2022-12-17T12:45:29;97589.38;;;-3.41;100.00
6829;BME280;17930;48.592;8.868;2022-12-17T12:48:26;97587.69;;;-3.18;100.00
6829;BME280;17930;48.592;8.868;2022-12-17T12:51:18;97587.25;;;-3.00;100.00
6829;BME280;17930;48.592;8.868;2022-12-17T12:54:21;97584.78;;;-3.07;100.00
6829;BME280;17930;48.592;8.868;2022-12-17T12:57:25;97587.16;;;-3.44;100.00
6829;BME280;17930;48.592;8.868;2022-12-17T13:00:21;97578.56;;;-3.51;100.00
6829;BME280;17930;48.592;8.868;2022-12-17T13:03:07;97579.78;;;-3.39;100.00
6829;BME280;17930;48.592;8.868;2022-12-17T13:05:51;97583.78;;;-3.37;100.00
6829;BME280;17930;48.592;8.868;2022-12-17T13:08:20;97583.44;;;-3.88;100.00
6829;BME280;17930;48.592;8.868;2022-12-17T13:10:47;97581.53;;;-3.86;100.00
6829;BME280;17930;48.592;8.868;2022-12-17T13:13:23;97583.16;;;-4.01;100.00
6829;BME280;17930;48.592;8.868;2022-12-17T13:15:53;97582.81;;;-3.98;100.00
6829;BME280;17930;48.592;8.868;2022-12-17T13:18:25;97578.81;;;-3.76;100.00
6829;BME280;17930;48.592;8.868;2022-12-17T13:20:57;97572.97;;;-4.08;100.00
6829;BME280;17930;48.592;8.868;2022-12-17T13:23:28;97573.53;;;-3.75;100.00
6829;BME280;17930;48.592;8.868;2022-12-17T13:26:17;97565.16;;;-3.91;100.00
6829;BME280;17930;48.592;8.868;2022-12-17T13:29:02;97570.66;;;-3.64;100.00
6829;BME280;17930;48.592;8.868;2022-12-17T13:31:46;97570.72;;;-3.80;100.00
6829;BME280;17930;48.592;8.868;2022-12-17T13:34:22;97565.00;;;-3.98;100.00
6829;BME280;17930;48.592;8.868;2022-12-17T13:36:57;97560.19;;;-3.93;100.00
6829;BME280;17930;48.592;8.868;2022-12-17T13:39:36;97566.56;;;-3.73;100.00
6829;BME280;17930;48.592;8.868;2022-12-17T13:42:16;97565.63;;;-3.80;100.00
6829;BME280;17930;48.592;8.868;2022-12-17T13:44:45;97570.88;;;-3.97;100.00
6829;BME280;17930;48.592;8.868;2022-12-17T13:47:20;97571.19;;;-3.92;100.00
6829;BME280;17930;48.592;8.868;2022-12-17T13:49:51;97578.34;;;-3.88;100.00
6829;BME280;17930;48.592;8.868;2022-12-17T13:52:23;97579.31;;;-4.12;100.00
6829;BME280;17930;48.592;8.868;2022-12-17T13:55:06;97576.16;;;-4.54;100.00
6829;BME280;17930;48.592;8.868;2022-12-17T13:57:36;97579.34;;;-4.44;100.00
6829;BME280;17930;48.592;8.868;2022-12-17T14:00:06;97585.41;;;-4.53;100.00
6829;BME280;17930;48.592;8.868;2022-12-17T14:02:44;97582.84;;;-4.61;100.00
6829;BME280;17930;48.592;8.868;2022-12-17T14:05:26;97587.94;;;-4.45;100.00
6829;BME280;17930;48.592;8.868;2022-12-17T14:07:58;97584.91;;;-4.57;100.00
6829;BME280;17930;48.592;8.868;2022-12-17T14:10:26;97584.75;;;-4.63;100.00
6829;BME280;17930;48.592;8.868;2022-12-17T14:13:02;97587.59;;;-4.74;100.00
6829;BME280;17930;48.592;8.868;2022-12-17T14:15:31;97584.56;;;-4.85;100.00
6829;BME280;17930;48.592;8.868;2022-12-17T14:17:58;97598.72;;;-4.83;100.00
6829;BME280;17930;48.592;8.868;2022-12-17T14:20:28;97602.00;;;-4.90;100.00
6829;BME280;17930;48.592;8.868;2022-12-17T14:22:59;97600.41;;;-5.07;100.00
6829;BME280;17930;48.592;8.868;2022-12-17T14:25:29;97607.09;;;-4.90;100.00
6829;BME280;17930;48.592;8.868;2022-12-17T14:27:59;97611.88;;;-4.87;100.00
6829;BME280;17930;48.592;8.868;2022-12-17T14:30:35;97615.84;;;-4.93;100.00
6829;BME280;17930;48.592;8.868;2022-12-17T14:33:04;97616.81;;;-4.86;100.00
6829;BME280;17930;48.592;8.868;2022-12-17T14:35:33;97625.84;;;-4.91;100.00
6829;BME280;17930;48.592;8.868;2022-12-17T14:38:01;97628.13;;;-5.21;100.00
6829;BME280;17930;48.592;8.868;2022-12-17T14:40:28;97628.13;;;-5.21;100.00